Dennison, Illinois
Current Conditions -  °F | °C
As of 12:53 PM on Friday 31 Oct 2014 (Local Time) from KHUF Reporting Station
Overcast Overcast  
Wind Chill: 32°   Ceiling: 3300
Heat Index: 41°   Visibility: 10mi
Dew Point: 30°   Wind: 21mph
Humidity: 65%   Direction: 330°NNW
Pressure: 30.09"   Gusts: 31mph
Location:  39.46°N, 87.6°W
Report Text: KHUF 311753Z 33018G27KT 10SM BKN033 BKN044 OVC055 05/M01 A3009 RMK AO2 PK WND 34028/1707 SLP193 60001 T00501011 10072 20039 50005
Loading
Personal Weather Stations






























Interactive Weather Map
Tropical Storm Tracking
New forecast layout! Learn more

10-Day Weather Forecast

Advertisements
Track Severe Weather on mobile